createdAt,value
2024-03-08T00:01:09.661Z,23.60
2024-03-08T00:03:50.650Z,23.70
2024-03-08T00:06:22.960Z,22.70
2024-03-08T00:08:55.305Z,24.40
2024-03-08T00:11:28.303Z,22.80
2024-03-08T00:14:00.660Z,22.90
2024-03-08T00:16:32.985Z,23.70
2024-03-08T00:19:05.372Z,22.40
2024-03-08T00:21:37.996Z,22.60
2024-03-08T00:24:10.548Z,23.10
2024-03-08T00:26:43.388Z,23.60
2024-03-08T00:29:15.771Z,23.50
2024-03-08T00:31:47.998Z,25.00
2024-03-08T00:34:20.421Z,22.60
2024-03-08T00:36:53.085Z,23.90
2024-03-08T00:39:25.310Z,24.10
2024-03-08T00:42:00.384Z,24.80
2024-03-08T00:44:33.042Z,24.30
2024-03-08T00:47:05.952Z,24.80
2024-03-08T00:49:39.162Z,25.00
2024-03-08T00:52:11.934Z,25.10
2024-03-08T00:54:44.888Z,25.10
2024-03-08T00:57:17.574Z,26.40
2024-03-08T00:59:50.680Z,25.70
2024-03-08T01:02:24.325Z,25.90
2024-03-08T01:04:56.751Z,26.60
2024-03-08T01:07:29.062Z,27.30
2024-03-08T01:10:01.984Z,26.10
2024-03-08T01:12:34.337Z,26.10
2024-03-08T01:15:07.618Z,27.70
2024-03-08T01:17:40.698Z,27.70
2024-03-08T01:20:13.898Z,27.00
2024-03-08T01:22:49.383Z,26.60
2024-03-08T01:25:21.789Z,26.90
2024-03-08T01:27:54.981Z,27.90
2024-03-08T01:30:27.441Z,27.90
2024-03-08T01:32:59.818Z,26.70
2024-03-08T01:35:32.287Z,27.90
2024-03-08T01:38:06.259Z,28.10
2024-03-08T01:40:38.589Z,27.90
2024-03-08T01:43:22.677Z,27.40
2024-03-08T01:45:55.619Z,29.70
2024-03-08T01:48:28.897Z,28.50
2024-03-08T01:51:02.709Z,27.80
2024-03-08T01:53:35.542Z,28.20
2024-03-08T01:56:10.042Z,28.40
2024-03-08T01:58:43.317Z,28.10
2024-03-08T02:01:16.895Z,27.10
2024-03-08T02:03:49.358Z,28.10
2024-03-08T02:06:21.805Z,28.70
2024-03-08T02:08:54.631Z,27.20
2024-03-08T02:11:27.189Z,28.10
2024-03-08T02:13:59.518Z,29.10
2024-03-08T02:16:31.767Z,27.80
2024-03-08T02:19:04.148Z,29.80
2024-03-08T02:21:36.374Z,28.90
2024-03-08T02:24:10.398Z,27.90
2024-03-08T02:26:43.872Z,27.00
2024-03-08T02:29:16.985Z,27.70
2024-03-08T02:31:49.318Z,28.10
2024-03-08T02:34:22.214Z,27.30
2024-03-08T02:36:54.473Z,27.20
2024-03-08T02:39:26.937Z,28.50
2024-03-08T02:42:00.563Z,28.40
2024-03-08T02:47:07.231Z,29.90
2024-03-08T02:49:39.794Z,28.60
2024-03-08T02:52:12.298Z,29.50
2024-03-08T02:54:44.773Z,27.70
2024-03-08T02:57:17.171Z,29.40
2024-03-08T02:59:49.499Z,28.00
2024-03-08T03:02:22.725Z,29.40
2024-03-08T03:04:57.156Z,28.00
2024-03-08T03:07:29.369Z,29.90
2024-03-08T03:10:02.739Z,28.80
2024-03-08T03:12:35.900Z,30.70
2024-03-08T03:15:09.425Z,29.20
2024-03-08T03:17:42.547Z,26.70
2024-03-08T03:20:23.923Z,29.40
2024-03-08T03:22:57.939Z,29.30
2024-03-08T03:25:35.346Z,27.90
2024-03-08T03:28:12.414Z,27.70
2024-03-08T03:30:45.159Z,29.20
2024-03-08T03:33:18.834Z,27.70
2024-03-08T03:35:53.180Z,27.70
2024-03-08T03:38:27.238Z,27.80
2024-03-08T03:41:05.921Z,26.40
2024-03-08T03:43:38.919Z,28.70
2024-03-08T03:46:12.021Z,28.90
2024-03-08T03:48:44.751Z,26.80
2024-03-08T03:51:17.721Z,26.40
2024-03-08T03:53:50.082Z,26.10
2024-03-08T03:56:27.110Z,25.80
2024-03-08T03:58:59.348Z,27.00
2024-03-08T04:01:32.021Z,27.70
2024-03-08T04:04:04.755Z,26.60
2024-03-08T04:06:36.992Z,26.10
2024-03-08T04:09:09.298Z,27.20
2024-03-08T04:11:41.932Z,25.90
2024-03-08T04:14:14.648Z,27.50
2024-03-08T04:16:47.747Z,26.50
2024-03-08T04:19:20.381Z,28.40
2024-03-08T04:21:52.847Z,26.90
2024-03-08T04:24:25.171Z,26.70
2024-03-08T04:26:57.968Z,27.40
2024-03-08T04:29:30.596Z,28.00
2024-03-08T04:32:04.855Z,26.70
2024-03-08T04:34:37.219Z,27.80
2024-03-08T04:37:12.104Z,28.10
2024-03-08T04:39:45.301Z,26.50
2024-03-08T04:42:19.529Z,26.60
2024-03-08T04:44:52.355Z,26.30
2024-03-08T04:47:25.196Z,26.70
2024-03-08T04:49:59.661Z,27.50
2024-03-08T04:52:32.338Z,28.90
2024-03-08T04:55:06.214Z,30.70
2024-03-08T04:57:38.987Z,30.20
2024-03-08T05:00:13.656Z,32.80
2024-03-08T05:02:46.154Z,33.60
2024-03-08T05:05:18.457Z,33.30
2024-03-08T05:07:50.922Z,33.60
2024-03-08T05:10:23.296Z,33.00
2024-03-08T05:12:57.630Z,32.30
2024-03-08T05:15:30.277Z,30.10
2024-03-08T05:18:02.998Z,29.00
2024-03-08T05:20:36.436Z,32.30
2024-03-08T05:23:09.592Z,31.80
2024-03-08T05:25:42.669Z,32.20
2024-03-08T05:28:15.169Z,30.90
2024-03-08T05:30:48.177Z,31.50
2024-03-08T05:33:20.850Z,30.60
2024-03-08T05:35:53.316Z,30.90
2024-03-08T05:38:25.969Z,30.50
2024-03-08T05:40:58.654Z,30.20
2024-03-08T05:43:31.291Z,30.80
2024-03-08T05:46:05.781Z,27.20
2024-03-08T05:48:38.975Z,27.80
2024-03-08T05:51:11.940Z,28.30
2024-03-08T05:53:44.610Z,27.80
2024-03-08T05:56:17.157Z,28.70
2024-03-08T05:58:51.243Z,28.10
2024-03-08T06:01:24.002Z,27.90
2024-03-08T06:03:57.040Z,28.20
2024-03-08T06:06:29.697Z,29.90
2024-03-08T06:09:09.740Z,29.00
2024-03-08T06:11:42.862Z,30.30
2024-03-08T06:14:19.850Z,31.00
2024-03-08T06:16:52.240Z,30.60
2024-03-08T06:19:24.685Z,31.30
2024-03-08T06:21:57.120Z,32.60
2024-03-08T06:24:29.335Z,32.40
2024-03-08T06:27:02.008Z,32.10
2024-03-08T06:29:34.306Z,32.20
2024-03-08T06:32:07.875Z,31.50
2024-03-08T06:34:40.163Z,31.10
2024-03-08T06:37:12.547Z,28.90
2024-03-08T06:39:45.976Z,29.80
2024-03-08T06:42:18.353Z,28.60
2024-03-08T06:44:51.210Z,26.70
2024-03-08T06:47:26.906Z,25.10
2024-03-08T06:49:59.267Z,26.40
2024-03-08T06:52:31.778Z,25.20
2024-03-08T06:55:06.531Z,24.70
2024-03-08T06:57:39.271Z,26.40
2024-03-08T07:00:19.600Z,25.30
2024-03-08T07:02:54.883Z,27.20
2024-03-08T07:05:30.841Z,27.40
2024-03-08T07:08:04.432Z,26.50
2024-03-08T07:10:38.445Z,27.40
2024-03-08T07:13:11.167Z,26.70
2024-03-08T07:15:43.573Z,27.30
2024-03-08T07:18:16.302Z,25.00
2024-03-08T07:20:51.111Z,23.50
2024-03-08T07:23:37.538Z,24.50
2024-03-08T07:26:10.984Z,24.50
2024-03-08T07:28:43.220Z,23.10
2024-03-08T07:31:22.639Z,23.30
2024-03-08T07:33:55.492Z,22.00
2024-03-08T07:36:30.279Z,22.90
2024-03-08T07:39:02.464Z,24.60
2024-03-08T07:41:37.796Z,23.00
2024-03-08T07:44:10.283Z,23.60
2024-03-08T07:46:42.682Z,24.30
2024-03-08T07:49:17.821Z,24.80
2024-03-08T07:51:50.434Z,24.10
2024-03-08T07:54:22.685Z,23.80
2024-03-08T07:56:54.904Z,23.20
2024-03-08T07:59:27.229Z,23.70
2024-03-08T08:02:00.803Z,22.30
2024-03-08T08:04:33.463Z,22.50
2024-03-08T08:07:05.822Z,23.30
2024-03-08T08:09:39.000Z,23.30
2024-03-08T08:12:13.278Z,24.00
2024-03-08T08:14:45.720Z,24.70
2024-03-08T08:17:17.948Z,22.60
2024-03-08T08:19:50.272Z,22.70
2024-03-08T08:22:22.588Z,23.40
2024-03-08T08:24:54.800Z,22.70
2024-03-08T08:27:27.563Z,24.90
2024-03-08T08:29:59.747Z,24.20
2024-03-08T08:32:32.095Z,23.70
2024-03-08T08:35:05.601Z,23.60
2024-03-08T08:37:38.447Z,23.50
2024-03-08T08:40:15.822Z,22.80
2024-03-08T08:42:50.472Z,23.30
2024-03-08T08:45:25.744Z,24.20
2024-03-08T08:48:00.979Z,23.90
2024-03-08T08:50:33.601Z,22.70
2024-03-08T08:53:08.251Z,22.10
2024-03-08T08:55:42.052Z,22.60
2024-03-08T08:58:15.059Z,22.60
2024-03-08T09:00:51.333Z,21.50
2024-03-08T09:03:25.084Z,20.60
2024-03-08T09:05:57.584Z,22.70
2024-03-08T09:08:31.481Z,20.50
2024-03-08T09:11:06.731Z,21.00
2024-03-08T09:13:39.109Z,20.70
2024-03-08T09:16:11.932Z,21.60
2024-03-08T09:18:45.026Z,21.40
2024-03-08T09:21:17.982Z,21.50
2024-03-08T09:23:50.250Z,21.40
2024-03-08T09:26:28.831Z,18.60
2024-03-08T09:29:02.118Z,20.00
2024-03-08T09:31:34.668Z,20.90
2024-03-08T09:34:10.249Z,18.70
2024-03-08T09:36:43.777Z,18.00
2024-03-08T09:39:18.092Z,20.50
2024-03-08T09:41:50.565Z,19.40
2024-03-08T09:44:24.205Z,19.70
2024-03-08T09:46:59.623Z,18.90
2024-03-08T09:49:32.107Z,19.00
2024-03-08T09:52:06.163Z,20.20
2024-03-08T09:54:38.841Z,20.80
2024-03-08T09:57:11.380Z,20.40
2024-03-08T09:59:49.319Z,20.50
2024-03-08T10:02:22.646Z,20.10
2024-03-08T10:04:55.526Z,20.60
2024-03-08T10:07:27.810Z,19.90
2024-03-08T10:10:00.608Z,18.10
2024-03-08T10:12:32.921Z,19.50
2024-03-08T10:15:05.487Z,18.50
2024-03-08T10:17:38.099Z,17.90
2024-03-08T10:20:19.345Z,17.50
2024-03-08T10:22:58.753Z,18.00
2024-03-08T10:28:11.025Z,18.80
2024-03-08T10:30:48.976Z,19.20
2024-03-08T10:33:21.329Z,19.20
2024-03-08T10:35:54.567Z,18.40
2024-03-08T10:38:33.917Z,19.30
2024-03-08T10:41:07.725Z,18.50
2024-03-08T10:44:07.734Z,18.40
2024-03-08T10:47:06.286Z,19.30
2024-03-08T10:49:47.844Z,18.50
2024-03-08T10:52:21.009Z,19.20
2024-03-08T10:54:55.358Z,19.00
2024-03-08T10:57:28.474Z,18.80
2024-03-08T11:00:01.832Z,19.90
2024-03-08T11:02:34.504Z,20.50
2024-03-08T11:05:08.236Z,20.80
2024-03-08T11:07:44.738Z,21.40
2024-03-08T11:10:25.166Z,21.80
2024-03-08T11:12:57.422Z,21.80
2024-03-08T11:15:31.913Z,21.70
2024-03-08T11:18:08.264Z,21.30
2024-03-08T11:20:41.205Z,19.30
2024-03-08T11:23:13.432Z,20.20
2024-03-08T11:25:47.325Z,20.10
2024-03-08T11:28:22.198Z,20.20
2024-03-08T11:31:27.063Z,20.70
2024-03-08T11:34:00.834Z,20.30
2024-03-08T11:36:38.026Z,20.10
2024-03-08T11:39:16.028Z,20.50
2024-03-08T11:41:48.438Z,19.60
2024-03-08T11:44:21.450Z,22.40
2024-03-08T11:46:54.756Z,21.30
2024-03-08T11:49:27.246Z,22.00
2024-03-08T11:51:59.654Z,21.80
2024-03-08T11:54:32.305Z,21.40
2024-03-08T11:57:04.675Z,21.10
2024-03-08T11:59:36.970Z,19.90
2024-03-08T12:02:11.607Z,19.30
2024-03-08T12:04:44.079Z,19.70
2024-03-08T12:07:20.264Z,19.80
2024-03-08T12:10:23.204Z,19.90
2024-03-08T12:12:57.397Z,20.20
2024-03-08T12:15:30.710Z,20.70
2024-03-08T12:18:03.658Z,20.20
2024-03-08T12:20:36.093Z,20.60
2024-03-08T12:23:08.545Z,20.00
2024-03-08T12:25:41.441Z,21.60
2024-03-08T12:28:16.295Z,21.80
2024-03-08T12:30:52.371Z,21.20
2024-03-08T12:33:24.753Z,21.00
2024-03-08T12:35:59.786Z,21.50
2024-03-08T12:38:33.645Z,20.20
2024-03-08T12:41:06.209Z,20.40
2024-03-08T12:43:38.594Z,20.60
2024-03-08T12:46:11.150Z,20.60
2024-03-08T12:48:46.915Z,20.00
2024-03-08T12:51:19.896Z,19.50
2024-03-08T12:53:57.001Z,19.60
2024-03-08T12:56:35.082Z,19.30
2024-03-08T12:59:11.325Z,19.30
2024-03-08T13:01:43.939Z,18.40
2024-03-08T13:04:16.469Z,19.10
2024-03-08T13:06:54.673Z,19.80
2024-03-08T13:09:28.782Z,19.90
2024-03-08T13:12:02.151Z,18.10
2024-03-08T13:14:36.558Z,18.70
2024-03-08T13:17:12.022Z,18.00
2024-03-08T13:19:44.441Z,18.60
2024-03-08T13:22:17.922Z,18.10
2024-03-08T13:24:54.096Z,19.50
2024-03-08T13:27:26.824Z,19.00
2024-03-08T13:29:58.969Z,19.30
2024-03-08T13:32:32.777Z,19.50
2024-03-08T13:35:05.811Z,20.40
2024-03-08T13:37:38.183Z,20.00
2024-03-08T13:40:15.115Z,21.20
2024-03-08T13:42:50.286Z,19.80
2024-03-08T13:45:25.556Z,20.30
2024-03-08T13:47:59.020Z,20.20
2024-03-08T13:50:31.445Z,18.30
2024-03-08T13:53:05.332Z,20.30
2024-03-08T13:55:38.046Z,18.50
2024-03-08T13:58:11.512Z,18.20
2024-03-08T14:00:45.048Z,18.80
2024-03-08T14:03:18.333Z,19.70
2024-03-08T14:05:50.965Z,20.10
2024-03-08T14:08:23.326Z,21.00
2024-03-08T14:10:55.651Z,21.00
2024-03-08T14:13:28.294Z,18.80
2024-03-08T14:16:00.509Z,20.00
2024-03-08T14:18:34.558Z,19.60
2024-03-08T14:21:09.574Z,19.80
2024-03-08T14:23:43.396Z,20.00
2024-03-08T14:26:17.228Z,20.30
2024-03-08T14:28:55.815Z,19.80
2024-03-08T14:31:29.310Z,20.00
2024-03-08T14:34:04.415Z,20.20
2024-03-08T14:36:37.759Z,19.90
2024-03-08T14:39:12.833Z,20.60
2024-03-08T14:41:45.204Z,20.30
2024-03-08T14:44:17.585Z,22.80
2024-03-08T14:46:50.771Z,21.30
2024-03-08T14:49:23.281Z,20.70
2024-03-08T14:51:55.528Z,21.40
2024-03-08T14:54:27.976Z,22.00
2024-03-08T14:57:00.191Z,21.20
2024-03-08T14:59:32.517Z,21.60
2024-03-08T15:02:08.157Z,21.10
2024-03-08T15:04:42.304Z,21.90
2024-03-08T15:07:14.682Z,20.40
2024-03-08T15:09:47.017Z,20.90
2024-03-08T15:12:19.222Z,21.20
2024-03-08T15:14:53.985Z,23.10
2024-03-08T15:17:26.414Z,21.00
2024-03-08T15:19:59.006Z,21.50
2024-03-08T15:22:31.443Z,22.00
2024-03-08T15:25:04.196Z,22.60
2024-03-08T15:27:39.918Z,22.90
2024-03-08T15:30:14.320Z,23.10
2024-03-08T15:32:51.518Z,21.90
2024-03-08T15:35:23.802Z,21.00
2024-03-08T15:37:59.622Z,21.40
2024-03-08T15:40:32.291Z,20.80
2024-03-08T15:43:04.823Z,20.70
2024-03-08T15:45:38.037Z,22.00
2024-03-08T15:48:11.560Z,20.80
2024-03-08T15:50:44.063Z,21.30
2024-03-08T15:53:16.748Z,22.10
2024-03-08T15:55:50.317Z,23.60
2024-03-08T15:58:22.592Z,22.70
2024-03-08T16:00:56.915Z,22.90
2024-03-08T16:03:31.689Z,23.70
2024-03-08T16:06:05.543Z,26.30
2024-03-08T16:08:40.895Z,26.10
2024-03-08T16:11:13.851Z,26.20
2024-03-08T16:13:46.501Z,24.90
2024-03-08T16:16:19.426Z,26.20
2024-03-08T16:18:52.667Z,25.60
2024-03-08T16:21:24.907Z,24.50
2024-03-08T16:23:57.311Z,24.40
2024-03-08T16:26:31.766Z,25.40
2024-03-08T16:29:05.074Z,24.10
2024-03-08T16:31:38.877Z,25.90
2024-03-08T16:34:11.384Z,24.90
2024-03-08T16:36:43.818Z,24.30
2024-03-08T16:39:16.959Z,25.10
2024-03-08T16:41:51.441Z,24.60
2024-03-08T16:44:26.008Z,25.90
2024-03-08T16:47:05.336Z,26.80
2024-03-08T16:49:43.204Z,26.50
2024-03-08T16:52:15.885Z,28.60
2024-03-08T16:54:52.690Z,28.10
2024-03-08T16:57:33.770Z,28.80
2024-03-08T17:00:07.853Z,30.40
2024-03-08T17:02:40.354Z,32.10
2024-03-08T17:05:12.742Z,33.40
2024-03-08T17:07:45.476Z,31.80
2024-03-08T17:10:20.628Z,34.50
2024-03-08T17:12:55.440Z,32.80
2024-03-08T17:15:28.605Z,33.40
2024-03-08T17:18:06.735Z,32.00
2024-03-08T17:20:39.882Z,32.90
2024-03-08T17:23:15.104Z,32.00
2024-03-08T17:25:49.372Z,35.80
2024-03-08T17:28:21.879Z,35.00
2024-03-08T17:30:54.262Z,39.40
2024-03-08T17:33:26.896Z,40.80
2024-03-08T17:35:59.170Z,37.20
2024-03-08T17:38:32.794Z,40.50
2024-03-08T17:41:05.715Z,42.50
2024-03-08T17:43:38.056Z,44.20
2024-03-08T17:46:13.771Z,44.20
2024-03-08T17:48:46.150Z,41.20
2024-03-08T17:51:18.389Z,44.10
2024-03-08T17:53:52.620Z,47.30
2024-03-08T17:56:25.105Z,45.80
2024-03-08T17:58:57.514Z,52.80
2024-03-08T18:01:33.959Z,65.40
2024-03-08T18:04:07.946Z,92.80
2024-03-08T18:06:42.178Z,79.30
2024-03-08T18:09:14.406Z,56.90
2024-03-08T18:11:46.752Z,55.20
2024-03-08T18:14:19.092Z,56.10
2024-03-08T18:16:52.248Z,66.20
2024-03-08T18:19:24.584Z,69.70
2024-03-08T18:21:57.027Z,75.70
2024-03-08T18:24:31.054Z,84.70
2024-03-08T18:27:03.300Z,82.90
2024-03-08T18:29:35.844Z,87.00
2024-03-08T18:32:09.661Z,86.20
2024-03-08T18:34:44.783Z,89.40
2024-03-08T18:37:17.004Z,79.90
2024-03-08T18:39:49.277Z,86.90
2024-03-08T18:42:21.731Z,89.20
2024-03-08T18:44:54.028Z,93.70
2024-03-08T18:47:26.442Z,86.80
2024-03-08T18:50:00.243Z,88.10
2024-03-08T18:52:32.697Z,86.20
2024-03-08T18:55:10.776Z,96.10
2024-03-08T18:57:45.332Z,122.20
2024-03-08T19:00:23.354Z,139.90
2024-03-08T19:02:58.177Z,134.50
2024-03-08T19:05:33.626Z,122.30
2024-03-08T19:08:09.805Z,124.30
2024-03-08T19:10:43.117Z,118.30
2024-03-08T19:13:17.791Z,136.80
2024-03-08T19:15:52.414Z,127.00
2024-03-08T19:18:26.281Z,129.10
2024-03-08T19:20:59.479Z,119.70
2024-03-08T19:23:35.655Z,117.00
2024-03-08T19:26:13.560Z,117.70
2024-03-08T19:28:48.206Z,114.60
2024-03-08T19:31:21.386Z,102.80
2024-03-08T19:33:54.194Z,116.00
2024-03-08T19:36:28.909Z,127.10
2024-03-08T19:39:01.137Z,132.20
2024-03-08T19:41:34.906Z,133.10
2024-03-08T19:44:09.042Z,134.90
2024-03-08T19:46:42.260Z,139.90
2024-03-08T19:49:18.240Z,139.00
2024-03-08T19:51:50.698Z,143.90
2024-03-08T19:54:25.807Z,142.60
2024-03-08T19:56:58.037Z,145.30
2024-03-08T19:59:32.023Z,149.30
2024-03-08T20:02:04.441Z,158.30
2024-03-08T20:04:36.872Z,149.60
2024-03-08T20:07:09.177Z,142.30
2024-03-08T20:09:41.652Z,162.30
2024-03-08T20:12:14.315Z,176.20
2024-03-08T20:14:46.635Z,168.30
2024-03-08T20:17:19.018Z,177.80
2024-03-08T20:19:51.464Z,185.90
2024-03-08T20:22:24.241Z,179.70
2024-03-08T20:24:56.689Z,168.30
2024-03-08T20:27:31.096Z,172.00
2024-03-08T20:30:03.417Z,173.30
2024-03-08T20:32:35.711Z,170.70
2024-03-08T20:35:11.520Z,170.10
2024-03-08T20:37:45.070Z,162.10
2024-03-08T20:40:21.279Z,161.50
2024-03-08T20:42:53.774Z,171.70
2024-03-08T20:45:27.489Z,181.60
2024-03-08T20:48:02.446Z,182.70
2024-03-08T20:50:38.077Z,182.50
2024-03-08T20:53:12.680Z,191.40
2024-03-08T20:55:46.077Z,188.80
2024-03-08T20:58:19.909Z,196.60
2024-03-08T21:00:56.690Z,188.20
2024-03-08T21:03:29.833Z,192.50
2024-03-08T21:06:03.058Z,196.90
2024-03-08T21:08:35.550Z,182.00
2024-03-08T21:11:10.569Z,188.40
2024-03-08T21:13:43.152Z,192.70
2024-03-08T21:16:15.687Z,183.00
2024-03-08T21:18:48.292Z,178.20
2024-03-08T21:21:20.782Z,179.20
2024-03-08T21:23:55.325Z,161.30
2024-03-08T21:26:27.665Z,173.90
2024-03-08T21:29:00.226Z,166.50
2024-03-08T21:31:32.747Z,153.90
2024-03-08T21:34:05.920Z,150.30
2024-03-08T21:36:38.512Z,145.80
2024-03-08T21:39:12.695Z,155.40
2024-03-08T21:41:45.313Z,155.80
2024-03-08T21:44:17.958Z,153.60
2024-03-08T21:46:50.449Z,149.30
2024-03-08T21:49:22.984Z,151.20
2024-03-08T21:51:55.251Z,149.50
2024-03-08T21:54:27.660Z,158.40
2024-03-08T21:57:00.261Z,162.80
2024-03-08T21:59:35.700Z,160.00
2024-03-08T22:02:08.210Z,152.10
2024-03-08T22:04:40.612Z,148.70
2024-03-08T22:07:13.979Z,159.30
2024-03-08T22:09:46.146Z,166.00
2024-03-08T22:12:18.968Z,163.00
2024-03-08T22:14:52.009Z,157.80
2024-03-08T22:17:25.406Z,157.40
2024-03-08T22:20:00.968Z,154.00
2024-03-08T22:22:33.421Z,151.80
2024-03-08T22:25:08.028Z,146.40
2024-03-08T22:27:42.986Z,152.00
2024-03-08T22:30:20.211Z,155.30
2024-03-08T22:32:55.235Z,155.30
2024-03-08T22:35:29.218Z,159.40
2024-03-08T22:38:02.701Z,162.50
2024-03-08T22:40:35.123Z,165.10
2024-03-08T22:43:08.209Z,160.40
2024-03-08T22:45:41.072Z,152.10
2024-03-08T22:48:14.348Z,153.20
2024-03-08T22:50:47.116Z,159.70
2024-03-08T22:53:19.378Z,161.50
2024-03-08T22:55:53.644Z,158.20
2024-03-08T22:58:25.955Z,154.90
2024-03-08T23:00:58.335Z,157.80
2024-03-08T23:03:33.044Z,152.80
2024-03-08T23:06:05.933Z,158.50
2024-03-08T23:08:38.879Z,154.20
2024-03-08T23:11:13.097Z,160.10
2024-03-08T23:13:47.149Z,155.10
2024-03-08T23:16:21.754Z,163.00
2024-03-08T23:18:54.214Z,159.40
2024-03-08T23:21:26.508Z,161.10
2024-03-08T23:23:58.799Z,165.20
2024-03-08T23:26:31.602Z,154.90
2024-03-08T23:29:04.609Z,156.40
2024-03-08T23:31:39.010Z,171.10
2024-03-08T23:34:11.197Z,157.70
2024-03-08T23:36:43.404Z,162.50
2024-03-08T23:39:16.387Z,167.40
2024-03-08T23:41:49.251Z,157.80
2024-03-08T23:44:21.433Z,160.90
2024-03-08T23:46:53.705Z,154.50
2024-03-08T23:49:29.037Z,158.00
2024-03-08T23:52:01.348Z,157.20
2024-03-08T23:54:34.174Z,154.70
2024-03-08T23:57:08.180Z,150.00
2024-03-08T23:59:42.327Z,149.50
